This is the latest recevied weather packets stored in our database for station/object SV9TNF-51. If no packets are shown the sender has not sent any weather packets the latest 10 day(s).
| Time | Temp. | Humidity | Pressure | Rain* | Wind** | Luminosity | Snow |
|---|---|---|---|---|---|---|---|
| 1787835393 | 34.44° C | 46% | 1011.9 hPa | 0 mm | 6.71 m/s, 343° | - | - |
| 1787835093 | 33.89° C | 47% | 1011.9 hPa | 0 mm | 8.94 m/s, 332° | - | - |
| 1787834793 | 34.44° C | 46% | 1011.9 hPa | 0 mm | 4.92 m/s, 117° | - | - |
| 1787834493 | 35.56° C | 42% | 1011.9 hPa | 0 mm | 1.79 m/s, 43° | - | - |
| 1787834193 | 33.89° C | 46% | 1011.9 hPa | 0 mm | 8.05 m/s, 321° | - | - |
| 1787833893 | 34.44° C | 46% | 1012.5 hPa | 0 mm | 8.49 m/s, 142° | - | - |
| 1787833592 | 33.89° C | 48% | 1012.5 hPa | 0 mm | 6.26 m/s, 341° | - | - |
| 1787833292 | 34.44° C | 48% | 1012.5 hPa | 0 mm | 9.39 m/s, 286° | - | - |
| 1787832992 | 35.56° C | 46% | 1012.5 hPa | 0 mm | 3.13 m/s, 119° | - | - |
| 1787832692 | 35° C | 41% | 1012.5 hPa | 0 mm | 4.02 m/s, 42° | - | - |
| 1787832392 | 34.44° C | 46% | 1012.5 hPa | 0 mm | 5.81 m/s, 0° | - | - |
| 1787832092 | 34.44° C | 48% | 1012.5 hPa | 0 mm | 2.68 m/s, 131° | - | - |
| 1787831792 | 34.44° C | 47% | 1012.5 hPa | 0 mm | 3.58 m/s, 353° | - | - |
| 1787831492 | 33.89° C | 51% | 1012.5 hPa | 0 mm | 8.05 m/s, 354° | - | - |
| 1787831192 | 33.89° C | 51% | 1012.5 hPa | 0 mm | 3.13 m/s, 355° | - | - |
| 1787830891 | 34.44° C | 46% | 1012.5 hPa | 0 mm | 4.92 m/s, 318° | - | - |
| 1787830592 | 33.89° C | 47% | 1012.5 hPa | 0 mm | 5.81 m/s, 348° | - | - |
| 1787830291 | 33.89° C | 48% | 1012.5 hPa | 0 mm | 10.28 m/s, 340° | - | - |
| 1787829991 | 33.89° C | 47% | 1012.5 hPa | 0 mm | 4.02 m/s, 102° | - | - |
| 1787829691 | 33.33° C | 49% | 1012.5 hPa | 0 mm | 13.86 m/s, 327° | - | - |
| 1787829391 | 33.33° C | 48% | 1012.5 hPa | 0 mm | 8.05 m/s, 357° | - | - |
| 1787829091 | 32.78° C | 50% | 1012.5 hPa | 0 mm | 10.28 m/s, 40° | - | - |
| 1787828791 | 33.33° C | 47% | 1012.5 hPa | 0 mm | 12.96 m/s, 318° | - | - |
| 1787828491 | 33.33° C | 47% | 1012.5 hPa | 0 mm | 8.49 m/s, 333° | - | - |
| 1787828191 | 35° C | 46% | 1012.5 hPa | 0 mm | 2.68 m/s, 140° | - | - |
* Rain latest hour (hover to see other rain measurements)
** Current wind speed in m/s (hover to see current wind gust speed)